createdAt,value
2022-09-20T00:04:56.173Z,9.69
2022-09-20T00:09:58.017Z,9.60
2022-09-20T00:14:59.617Z,9.55
2022-09-20T00:20:01.393Z,9.71
2022-09-20T00:25:03.063Z,9.70
2022-09-20T00:30:05.151Z,9.77
2022-09-20T00:35:08.524Z,9.71
2022-09-20T00:40:16.375Z,9.57
2022-09-20T00:45:24.614Z,9.55
2022-09-20T00:50:47.274Z,9.63
2022-09-20T00:55:56.827Z,9.73
2022-09-20T01:00:59.920Z,9.73
2022-09-20T01:06:06.837Z,9.76
2022-09-20T01:11:08.503Z,9.76
2022-09-20T01:16:11.902Z,9.62
2022-09-20T01:21:14.710Z,9.64
2022-09-20T01:26:38.215Z,9.68
2022-09-20T01:31:53.351Z,9.77
2022-09-20T01:37:02.432Z,9.69
2022-09-20T01:42:14.340Z,9.73
2022-09-20T01:47:21.941Z,9.67
2022-09-20T01:53:10.720Z,9.72
2022-09-20T01:58:12.293Z,9.75
2022-09-20T02:03:42.923Z,9.67
2022-09-20T02:09:31.941Z,9.73
2022-09-20T02:14:58.255Z,9.64
2022-09-20T02:20:09.429Z,9.60
2022-09-20T02:25:16.983Z,9.57
2022-09-20T02:30:40.049Z,9.57
2022-09-20T02:36:09.444Z,9.38
2022-09-20T02:41:23.235Z,9.42
2022-09-20T02:46:37.153Z,9.51
2022-09-20T02:52:00.252Z,9.54
2022-09-20T02:57:29.588Z,9.56
2022-09-20T03:02:57.818Z,9.46
2022-09-20T03:08:20.728Z,9.49
2022-09-20T03:13:50.930Z,9.33
2022-09-20T03:19:17.351Z,9.35
2022-09-20T03:24:55.064Z,9.26
2022-09-20T03:30:10.143Z,9.18
2022-09-20T03:35:59.734Z,9.06
2022-09-20T03:41:13.444Z,9.22
2022-09-20T03:46:30.101Z,9.09
2022-09-20T03:52:02.943Z,9.02
2022-09-20T03:57:09.593Z,9.03
2022-09-20T04:02:19.840Z,8.98
2022-09-20T04:07:43.538Z,8.99
2022-09-20T04:13:09.645Z,9.17
2022-09-20T04:18:59.498Z,9.16
2022-09-20T04:24:10.218Z,9.17
2022-09-20T04:29:31.125Z,9.20
2022-09-20T04:34:57.314Z,9.43
2022-09-20T04:40:04.883Z,9.28
2022-09-20T04:45:09.600Z,9.19
2022-09-20T04:50:13.919Z,9.21
2022-09-20T04:55:21.633Z,9.37
2022-09-20T05:00:24.515Z,9.32
2022-09-20T05:05:32.117Z,9.18
2022-09-20T05:10:58.460Z,9.24
2022-09-20T05:16:18.570Z,9.12
2022-09-20T05:21:29.180Z,9.39
2022-09-20T05:26:49.056Z,9.30
2022-09-20T05:32:00.455Z,9.11
2022-09-20T05:37:06.317Z,9.18
2022-09-20T05:42:20.978Z,9.16
2022-09-20T05:47:53.584Z,9.13
2022-09-20T05:53:32.582Z,9.20
2022-09-20T05:58:54.491Z,9.33
2022-09-20T06:04:21.235Z,9.66
2022-09-20T06:09:29.846Z,9.58
2022-09-20T06:15:02.753Z,9.51
2022-09-20T06:20:33.212Z,9.39
2022-09-20T06:25:44.741Z,9.64
2022-09-20T06:30:55.725Z,10.07
2022-09-20T06:36:23.153Z,10.06
2022-09-20T06:41:29.119Z,9.99
2022-09-20T06:46:34.222Z,10.18
2022-09-20T06:51:38.410Z,10.25
2022-09-20T06:56:40.219Z,10.41
2022-09-20T07:01:43.351Z,10.40
2022-09-20T07:06:45.144Z,10.67
2022-09-20T07:11:46.753Z,10.81
2022-09-20T07:16:48.495Z,10.66
2022-09-20T07:21:50.080Z,10.62
2022-09-20T07:26:57.337Z,10.76
2022-09-20T07:31:59.009Z,10.46
2022-09-20T07:37:00.595Z,10.37
2022-09-20T07:42:06.152Z,10.57
2022-09-20T07:47:10.144Z,11.03
2022-09-20T07:52:11.790Z,11.00
2022-09-20T07:57:13.459Z,11.02
2022-09-20T08:02:16.722Z,10.86
2022-09-20T08:07:18.632Z,10.77
2022-09-20T08:17:41.817Z,10.84
2022-09-20T08:22:43.613Z,10.93
2022-09-20T08:27:45.389Z,10.68
2022-09-20T08:32:47.048Z,10.76
2022-09-20T08:37:48.634Z,10.98
2022-09-20T08:42:50.226Z,10.70
2022-09-20T08:47:58.893Z,10.97
2022-09-20T08:53:05.451Z,11.04
2022-09-20T08:58:11.120Z,11.06
2022-09-20T09:03:14.500Z,11.06
2022-09-20T09:08:27.292Z,10.86
2022-09-20T09:13:41.610Z,10.64
2022-09-20T09:18:45.610Z,10.77
2022-09-20T09:23:53.240Z,10.96
2022-09-20T09:29:15.714Z,11.47
2022-09-20T09:34:33.393Z,11.36
2022-09-20T09:39:38.561Z,11.19
2022-09-20T09:44:40.129Z,11.30
2022-09-20T09:50:00.804Z,11.42
2022-09-20T09:55:06.017Z,11.51
2022-09-20T10:00:18.995Z,11.78
2022-09-20T10:05:47.759Z,12.67
2022-09-20T10:10:52.859Z,12.36
2022-09-20T10:16:17.549Z,12.09
2022-09-20T10:22:04.518Z,12.37
2022-09-20T10:27:14.453Z,12.59
2022-09-20T10:32:37.996Z,12.73
2022-09-20T10:38:03.475Z,12.50
2022-09-20T10:43:17.158Z,12.84
2022-09-20T10:48:32.653Z,13.35
2022-09-20T10:53:37.315Z,13.55
2022-09-20T10:58:45.298Z,14.11
2022-09-20T11:04:09.020Z,13.68
2022-09-20T11:09:18.795Z,13.67
2022-09-20T11:14:30.116Z,13.66
2022-09-20T11:20:06.220Z,13.55
2022-09-20T11:25:29.433Z,13.81
2022-09-20T11:30:36.353Z,13.58
2022-09-20T11:35:55.000Z,13.52
2022-09-20T11:41:11.850Z,14.01
2022-09-20T11:46:22.059Z,14.18
2022-09-20T11:51:54.644Z,14.32
2022-09-20T11:56:57.782Z,14.54
2022-09-20T12:02:02.904Z,14.82
2022-09-20T12:07:18.487Z,14.66
2022-09-20T12:12:37.790Z,14.52
2022-09-20T12:17:49.196Z,14.52
2022-09-20T12:22:50.850Z,14.83
2022-09-20T12:27:53.425Z,14.17
2022-09-20T12:32:58.668Z,13.60
2022-09-20T12:38:17.116Z,13.25
2022-09-20T12:43:22.414Z,12.76
2022-09-20T12:48:24.707Z,12.87
2022-09-20T12:53:26.488Z,13.11
2022-09-20T12:58:51.515Z,13.11
2022-09-20T13:03:53.281Z,13.38
2022-09-20T13:09:09.644Z,13.78
2022-09-20T13:14:16.167Z,13.50
2022-09-20T13:19:18.191Z,13.60
2022-09-20T13:24:21.027Z,13.75
2022-09-20T13:29:37.650Z,13.82
2022-09-20T13:34:39.339Z,13.88
2022-09-20T13:39:42.095Z,14.07
2022-09-20T13:44:43.815Z,14.28
2022-09-20T13:49:45.496Z,14.66
2022-09-20T13:54:48.494Z,14.91
2022-09-20T13:59:51.152Z,14.96
2022-09-20T14:04:56.128Z,14.40
2022-09-20T14:09:59.018Z,13.18
2022-09-20T14:15:10.545Z,12.63
2022-09-20T14:20:17.064Z,12.25
2022-09-20T14:25:22.028Z,11.92
2022-09-20T14:30:35.168Z,11.68
2022-09-20T14:35:36.878Z,11.18
2022-09-20T14:40:45.159Z,11.06
2022-09-20T14:45:54.261Z,10.90
2022-09-20T14:51:26.066Z,10.65
2022-09-20T14:56:39.611Z,10.58
2022-09-20T15:01:45.971Z,10.65
2022-09-20T15:06:49.035Z,10.68
2022-09-20T15:12:20.411Z,10.66
2022-09-20T15:17:22.400Z,10.80
2022-09-20T15:22:24.145Z,10.69
2022-09-20T15:27:28.363Z,10.61
2022-09-20T15:32:30.482Z,10.67
2022-09-20T15:37:32.080Z,10.39
2022-09-20T15:42:38.001Z,10.31
2022-09-20T15:47:40.711Z,10.27
2022-09-20T15:52:42.527Z,10.25
2022-09-20T15:57:44.730Z,10.32
2022-09-20T16:02:50.126Z,10.33
2022-09-20T16:07:51.861Z,10.24
2022-09-20T16:12:53.593Z,10.24
2022-09-20T16:18:13.926Z,10.34
2022-09-20T16:23:15.709Z,10.16
2022-09-20T16:28:17.366Z,10.22
2022-09-20T16:33:18.969Z,10.06
2022-09-20T16:38:20.762Z,9.96
2022-09-20T16:43:26.464Z,9.93
2022-09-20T16:48:30.451Z,10.08
2022-09-20T16:53:32.151Z,10.15
2022-09-20T16:58:36.547Z,10.31
2022-09-20T17:03:40.836Z,10.21
2022-09-20T17:08:45.122Z,10.09
2022-09-20T17:13:47.385Z,9.99
2022-09-20T17:18:58.223Z,10.20
2022-09-20T17:24:00.606Z,10.49
2022-09-20T17:29:06.718Z,10.49
2022-09-20T17:34:11.037Z,10.57
2022-09-20T17:39:14.382Z,10.29
2022-09-20T17:44:16.802Z,10.50
2022-09-20T17:49:22.372Z,10.53
2022-09-20T17:54:24.731Z,10.48
2022-09-20T17:59:26.432Z,10.37
2022-09-20T18:04:27.984Z,10.23
2022-09-20T18:09:29.626Z,10.08
2022-09-20T18:14:32.580Z,10.22
2022-09-20T18:19:34.431Z,10.31
2022-09-20T18:24:35.961Z,10.26
2022-09-20T18:29:37.511Z,10.10
2022-09-20T18:34:39.555Z,10.25
2022-09-20T18:39:41.077Z,10.09
2022-09-20T18:44:43.921Z,9.85
2022-09-20T18:49:45.444Z,9.68
2022-09-20T18:54:47.027Z,9.63
2022-09-20T18:59:54.356Z,9.62
2022-09-20T19:05:49.279Z,9.84
2022-09-20T19:10:57.227Z,9.77
2022-09-20T19:16:04.651Z,9.86
2022-09-20T19:21:17.614Z,9.94
2022-09-20T19:26:24.793Z,9.88
2022-09-20T19:31:28.377Z,9.82
2022-09-20T19:37:03.578Z,9.84
2022-09-20T19:42:14.816Z,9.90
2022-09-20T19:47:25.185Z,9.71
2022-09-20T19:52:27.011Z,9.66
2022-09-20T19:57:39.746Z,9.78
2022-09-20T20:02:45.174Z,9.60
2022-09-20T20:08:14.933Z,9.51
2022-09-20T20:14:06.291Z,9.43
2022-09-20T20:19:24.803Z,9.75
2022-09-20T20:24:55.725Z,9.89
2022-09-20T20:29:57.536Z,9.59
2022-09-20T20:34:59.061Z,9.49
2022-09-20T20:40:00.893Z,9.70
2022-09-20T20:45:02.594Z,9.82
2022-09-20T20:50:04.907Z,9.66
2022-09-20T20:55:06.959Z,9.56
2022-09-20T21:00:09.144Z,9.52
2022-09-20T21:05:10.692Z,9.47
2022-09-20T21:10:12.794Z,9.44
2022-09-20T21:15:14.833Z,9.50
2022-09-20T21:20:16.414Z,9.51
2022-09-20T21:25:18.006Z,9.49
2022-09-20T21:30:20.614Z,9.51
2022-09-20T21:35:24.083Z,9.52
2022-09-20T21:40:25.626Z,9.52
2022-09-20T21:45:29.616Z,9.49
2022-09-20T21:50:31.137Z,9.38
2022-09-20T21:55:33.468Z,9.53
2022-09-20T22:00:35.849Z,9.63
2022-09-20T22:05:37.657Z,9.58
2022-09-20T22:10:39.209Z,9.59
2022-09-20T22:15:40.814Z,9.59
2022-09-20T22:20:42.478Z,9.62
2022-09-20T22:25:43.988Z,9.63
2022-09-20T22:30:45.632Z,9.55
2022-09-20T22:35:47.258Z,9.48
2022-09-20T22:40:53.793Z,9.53
2022-09-20T22:46:02.457Z,9.62
2022-09-20T22:51:11.879Z,9.46
2022-09-20T22:56:16.411Z,9.40
2022-09-20T23:01:26.503Z,9.25
2022-09-20T23:06:31.464Z,9.25
2022-09-20T23:11:33.451Z,9.45
2022-09-20T23:16:37.197Z,9.36
2022-09-20T23:21:40.598Z,9.31
2022-09-20T23:26:43.812Z,9.32
2022-09-20T23:31:47.338Z,9.29
2022-09-20T23:36:49.057Z,9.30
2022-09-20T23:41:51.434Z,9.35
2022-09-20T23:46:53.090Z,9.37
2022-09-20T23:51:54.645Z,9.38
2022-09-20T23:56:56.190Z,9.47
